Pantego, Texas
Current Conditions -  °F | °C
As of 5:53 PM on Sunday 21 Dec 2014 (Local Time) from KGKY Reporting Station
Overcast Overcast  
Wind Chill: 53°   Ceiling: 2400
Heat Index: 53°   Visibility: 10mi
Dew Point: 45°   Wind: 13mph
Humidity: 74%   Direction: 150°SSE
Pressure: 29.84"   Gusts: 20mph
Location:  32.6916°N, 97.1334°W
Report Text: KGKY 212353Z 15011G17KT 10SM OVC024 12/07 A2984 RMK AO2 SLP101 T01170072 10117 20106 56014
Loading
Personal Weather Stations






























Interactive Weather Map New forecast layout! Learn more

10-Day Weather Forecast

Advertisements
Track Severe Weather on mobile